Time;durP1;ratioP1;P1;durP2;ratioP2;P2;SDS_P1;SDS_P2;PMS_P1;PMS_P2;Temp;Humidity;BMP_temperature;BMP_pressure;BME280_temperature;BME280_humidity;BME280_pressure;Samples;Min_cycle;Max_cycle;Signal;HPM_P1;HPM_P2
2022/09/22 00:01:26;;;;;;;5.47;3.40;;;9.30;99.90;;;;;;5071037;28;20557;-84
2022/09/22 00:03:56;;;;;;;6.38;3.83;;;9.30;99.90;;;;;;5095780;28;20410;-84
2022/09/22 00:06:29;;;;;;;6.47;4.38;;;9.30;99.90;;;;;;5076014;28;20917;-83
2022/09/22 00:09:01;;;;;;;4.80;3.67;;;9.20;99.90;;;;;;5079975;28;20910;-85
2022/09/22 00:11:32;;;;;;;4.90;3.53;;;9.20;99.90;;;;;;5071867;28;20388;-84
2022/09/22 00:14:14;;;;;;;5.53;3.97;;;9.20;99.90;;;;;;5064055;28;20879;-84
2022/09/22 00:16:47;;;;;;;6.63;4.10;;;9.20;99.90;;;;;;5077076;28;20400;-84
2022/09/22 00:19:18;;;;;;;5.25;3.90;;;9.30;99.90;;;;;;5081906;28;20619;-84
2022/09/22 00:21:46;;;;;;;6.00;3.80;;;9.20;99.90;;;;;;5080642;28;20884;-85
2022/09/22 00:24:14;;;;;;;5.75;3.65;;;9.20;99.90;;;;;;5083762;28;20464;-84
2022/09/22 00:26:42;;;;;;;5.40;3.87;;;9.30;99.90;;;;;;5066339;28;20408;-84
2022/09/22 00:29:11;;;;;;;6.63;3.75;;;9.20;99.90;;;;;;5084476;28;20886;-84
2022/09/22 00:31:40;;;;;;;5.63;3.70;;;9.20;99.90;;;;;;5083683;28;20426;-84
2022/09/22 00:34:20;;;;;;;5.95;4.15;;;9.20;99.90;;;;;;5072919;28;20416;-84
2022/09/22 00:36:48;;;;;;;5.85;4.10;;;9.20;99.90;;;;;;5059302;28;20858;-85
2022/09/22 00:39:17;;;;;;;6.25;3.72;;;9.20;99.90;;;;;;5081580;28;20398;-85
2022/09/22 00:41:48;;;;;;;5.53;3.30;;;9.20;99.90;;;;;;5067312;28;20473;-84
2022/09/22 00:44:35;;;;;;;5.53;3.83;;;9.20;99.90;;;;;;5078451;28;20386;-84
2022/09/22 00:47:17;;;;;;;6.33;3.80;;;9.20;99.90;;;;;;5080427;28;20985;-84
2022/09/22 00:50:03;;;;;;;5.27;3.47;;;9.30;99.90;;;;;;5090098;28;20399;-85
2022/09/22 00:52:36;;;;;;;5.63;3.90;;;9.20;99.90;;;;;;5099939;28;20481;-84
2022/09/22 00:55:12;;;;;;;5.70;3.78;;;9.20;99.90;;;;;;5066021;28;20478;-83
2022/09/22 00:57:41;;;;;;;5.35;4.03;;;9.20;99.90;;;;;;5064092;28;20450;-83
2022/09/22 01:00:10;;;;;;;5.07;3.60;;;9.20;99.90;;;;;;5067333;28;20396;-85
2022/09/22 01:02:38;;;;;;;6.43;4.18;;;9.20;99.90;;;;;;5068717;28;20392;-84
2022/09/22 01:05:07;;;;;;;5.45;4.18;;;9.20;99.90;;;;;;5094836;28;20443;-85
2022/09/22 01:07:36;;;;;;;6.53;4.47;;;9.20;99.90;;;;;;5064705;28;20390;-84
2022/09/22 01:10:03;;;;;;;8.68;4.70;;;9.20;99.90;;;;;;5063107;28;20393;-84
2022/09/22 01:12:31;;;;;;;8.27;4.30;;;9.20;99.90;;;;;;5090434;28;20451;-82
2022/09/22 01:15:17;;;;;;;4.47;3.83;;;9.20;99.90;;;;;;5082667;28;20398;-86
2022/09/22 01:17:53;;;;;;;7.38;4.88;;;9.20;99.90;;;;;;5095968;28;20520;-85
2022/09/22 01:21:14;;;;;;;6.97;4.50;;;9.20;99.90;;;;;;5096164;28;20807;-84
2022/09/22 01:23:45;;;;;;;6.57;4.90;;;9.20;99.90;;;;;;5021881;28;20952;-85
2022/09/22 01:26:13;;;;;;;6.53;4.18;;;9.10;99.90;;;;;;5043221;28;20467;-84
2022/09/22 01:28:52;;;;;;;6.03;4.60;;;9.10;99.90;;;;;;5060639;28;20922;-84
2022/09/22 01:31:31;;;;;;;7.18;4.90;;;9.10;99.90;;;;;;5081502;28;20447;-84
2022/09/22 01:34:14;;;;;;;8.13;5.28;;;9.10;99.90;;;;;;5084691;28;20442;-83
2022/09/22 01:37:14;;;;;;;6.88;5.50;;;9.10;99.90;;;;;;5085548;28;20404;-84
2022/09/22 01:39:54;;;;;;;7.70;5.90;;;9.00;99.90;;;;;;5092380;28;20394;-83
2022/09/22 01:42:43;;;;;;;6.80;5.23;;;9.00;99.90;;;;;;5073374;28;20445;-84
2022/09/22 01:45:15;;;;;;;6.93;5.20;;;9.00;99.90;;;;;;5081460;28;20404;-83
2022/09/22 01:48:08;;;;;;;6.80;5.10;;;9.10;99.90;;;;;;5081325;28;20489;-86
2022/09/22 01:50:43;;;;;;;7.20;5.13;;;9.10;99.90;;;;;;5080152;28;20399;-84
2022/09/22 01:53:15;;;;;;;6.97;5.28;;;9.00;99.90;;;;;;5063803;28;20458;-83
2022/09/22 01:55:48;;;;;;;6.68;5.47;;;9.00;99.90;;;;;;5082585;28;20401;-83
2022/09/22 01:58:24;;;;;;;7.87;5.97;;;9.00;99.90;;;;;;5093657;28;20382;-85
2022/09/22 02:01:06;;;;;;;9.17;5.10;;;9.10;99.90;;;;;;5080740;28;20468;-84
2022/09/22 02:03:56;;;;;;;8.00;5.60;;;9.00;99.90;;;;;;5085332;28;20428;-84
2022/09/22 02:06:51;;;;;;;6.43;5.03;;;9.00;99.90;;;;;;5082425;28;20469;-84
2022/09/22 02:09:22;;;;;;;7.43;5.32;;;9.10;99.90;;;;;;5082344;28;20394;-85
2022/09/22 02:11:50;;;;;;;7.95;4.80;;;9.00;99.90;;;;;;5090614;28;20380;-86
2022/09/22 02:14:18;;;;;;;7.05;5.05;;;9.00;99.90;;;;;;5062185;28;20876;-85
2022/09/22 02:16:45;;;;;;;6.88;5.40;;;9.00;99.90;;;;;;5095700;28;20520;-84
2022/09/22 02:19:18;;;;;;;6.40;5.10;;;9.00;99.90;;;;;;5063674;28;20408;-85
2022/09/22 02:21:46;;;;;;;7.28;4.88;;;8.90;99.90;;;;;;5082052;28;20506;-84
2022/09/22 02:24:29;;;;;;;8.68;5.43;;;8.90;99.90;;;;;;5082486;28;20402;-85
2022/09/22 02:26:58;;;;;;;7.75;5.57;;;8.90;99.90;;;;;;5064548;28;20402;-85
2022/09/22 02:29:32;;;;;;;7.43;5.63;;;9.00;99.90;;;;;;5082024;28;20393;-84
2022/09/22 02:32:04;;;;;;;6.33;5.30;;;9.00;99.90;;;;;;5064165;28;20404;-83
2022/09/22 02:34:32;;;;;;;8.13;5.80;;;9.00;99.90;;;;;;5082412;28;20488;-84
2022/09/22 02:37:24;;;;;;;7.50;5.30;;;8.90;99.90;;;;;;5066397;28;20403;-85
2022/09/22 02:40:03;;;;;;;7.78;6.05;;;8.90;99.90;;;;;;5039244;28;20500;-84
2022/09/22 02:43:11;;;;;;;7.93;5.80;;;9.00;99.90;;;;;;5061471;28;20404;-85
2022/09/22 02:45:50;;;;;;;10.00;6.70;;;8.90;99.90;;;;;;5067652;28;20400;-86
2022/09/22 02:48:25;;;;;;;10.60;7.03;;;8.90;99.90;;;;;;5078429;28;20399;-83
2022/09/22 02:50:54;;;;;;;8.57;6.60;;;9.00;99.90;;;;;;5083969;28;20408;-85
2022/09/22 02:53:21;;;;;;;9.43;6.82;;;8.90;99.90;;;;;;5065297;28;20742;-84
2022/09/22 02:55:49;;;;;;;8.10;6.32;;;8.80;99.90;;;;;;5083922;28;20762;-85
2022/09/22 02:58:17;;;;;;;11.35;6.95;;;8.80;99.90;;;;;;5089341;28;20394;-84
2022/09/22 03:00:44;;;;;;;9.40;6.75;;;8.80;99.90;;;;;;5072888;28;20384;-84
2022/09/22 03:03:12;;;;;;;8.45;6.03;;;8.80;99.90;;;;;;5060539;28;20372;-83
2022/09/22 03:05:39;;;;;;;8.20;6.70;;;8.80;99.90;;;;;;5094840;28;20485;-83
2022/09/22 03:08:07;;;;;;;8.45;5.93;;;8.80;99.90;;;;;;5070444;28;20401;-84
2022/09/22 03:10:34;;;;;;;8.63;5.80;;;8.70;99.90;;;;;;5063898;28;20814;-85
2022/09/22 03:13:02;;;;;;;6.60;5.47;;;8.70;99.90;;;;;;5080959;28;20398;-85
2022/09/22 03:15:45;;;;;;;8.40;6.03;;;8.70;99.90;;;;;;5082500;28;20409;-85
2022/09/22 03:18:13;;;;;;;6.15;5.15;;;8.70;99.90;;;;;;5060997;28;20489;-84
2022/09/22 03:20:41;;;;;;;8.25;5.40;;;8.70;99.90;;;;;;5066519;28;20619;-84
2022/09/22 03:23:09;;;;;;;7.88;5.10;;;8.60;99.90;;;;;;5072186;28;20401;-83
2022/09/22 03:25:36;;;;;;;9.60;5.25;;;8.60;99.90;;;;;;5079214;28;20737;-84
2022/09/22 03:28:04;;;;;;;6.13;5.00;;;8.60;99.90;;;;;;5097144;28;20393;-85
2022/09/22 03:30:32;;;;;;;8.07;5.78;;;8.60;99.90;;;;;;5094250;28;20406;-84
2022/09/22 03:32:59;;;;;;;7.15;4.90;;;8.60;99.90;;;;;;5074793;28;20399;-85
2022/09/22 03:35:27;;;;;;;7.63;5.20;;;8.70;99.90;;;;;;5081255;28;20746;-85
2022/09/22 03:37:54;;;;;;;6.28;5.00;;;8.80;99.90;;;;;;5055447;28;20400;-84
2022/09/22 03:40:22;;;;;;;5.78;4.28;;;8.80;99.90;;;;;;5063672;28;20391;-87
2022/09/22 03:42:50;;;;;;;8.23;4.78;;;8.70;99.90;;;;;;5070009;28;20435;-84
2022/09/22 03:45:18;;;;;;;7.60;4.65;;;8.70;99.90;;;;;;5073094;28;20930;-84
2022/09/22 03:47:45;;;;;;;7.13;4.40;;;8.80;99.90;;;;;;5094752;28;20969;-84
2022/09/22 03:50:13;;;;;;;6.72;4.80;;;8.70;99.90;;;;;;5091301;28;20588;-85
2022/09/22 03:52:42;;;;;;;8.20;4.83;;;8.80;99.90;;;;;;5074644;28;20397;-83
2022/09/22 03:55:10;;;;;;;6.77;4.37;;;8.70;99.90;;;;;;5075517;28;20880;-85
2022/09/22 03:57:39;;;;;;;6.28;4.22;;;8.70;99.90;;;;;;5075980;28;20439;-85
2022/09/22 04:00:07;;;;;;;5.43;4.20;;;8.60;99.90;;;;;;5064696;28;20424;-85
2022/09/22 04:02:37;;;;;;;5.93;4.13;;;8.50;99.90;;;;;;5063467;28;20873;-86
2022/09/22 04:05:06;;;;;;;5.93;4.80;;;8.60;99.90;;;;;;5078655;28;20402;-83
2022/09/22 04:07:33;;;;;;;5.00;4.10;;;8.60;99.90;;;;;;5063297;28;20985;-83
2022/09/22 04:10:01;;;;;;;6.50;4.30;;;8.60;99.90;;;;;;5046053;28;20407;-84
2022/09/22 04:12:29;;;;;;;6.32;3.95;;;8.60;99.90;;;;;;5087784;28;20501;-84
2022/09/22 04:14:57;;;;;;;6.90;4.72;;;8.70;99.90;;;;;;5095244;28;20429;-83
2022/09/22 04:17:24;;;;;;;7.45;4.50;;;8.60;99.90;;;;;;5061726;28;20384;-82
2022/09/22 04:19:54;;;;;;;9.50;5.45;;;8.50;99.90;;;;;;5079897;28;20400;-85
2022/09/22 04:22:21;;;;;;;5.35;4.35;;;8.50;99.90;;;;;;5079095;28;20799;-82
2022/09/22 04:24:49;;;;;;;5.85;4.03;;;8.50;99.90;;;;;;5078382;28;20416;-82
2022/09/22 04:27:17;;;;;;;7.50;4.85;;;8.50;99.90;;;;;;5079299;28;21001;-82
2022/09/22 04:29:47;;;;;;;6.50;4.20;;;8.50;99.90;;;;;;5076234;28;20951;-86
2022/09/22 04:32:16;;;;;;;7.78;4.82;;;8.50;99.90;;;;;;5083662;28;20419;-86
2022/09/22 04:34:44;;;;;;;6.55;5.10;;;8.60;99.90;;;;;;5085853;28;20501;-86
2022/09/22 04:37:12;;;;;;;9.23;5.55;;;8.60;99.90;;;;;;5072225;28;20869;-84
2022/09/22 04:39:39;;;;;;;6.60;4.47;;;8.70;99.90;;;;;;5067250;28;20528;-85
2022/09/22 04:42:07;;;;;;;6.17;4.40;;;8.70;99.90;;;;;;5076033;28;20571;-86
2022/09/22 04:44:38;;;;;;;8.93;5.60;;;8.60;99.90;;;;;;5074863;28;20480;-82
2022/09/22 04:47:06;;;;;;;7.90;5.72;;;8.60;99.90;;;;;;5064309;28;20436;-81
2022/09/22 04:49:33;;;;;;;8.65;5.30;;;8.70;99.90;;;;;;5080727;28;20763;-80
2022/09/22 04:52:01;;;;;;;7.78;5.15;;;8.70;99.90;;;;;;5081816;28;20397;-85
2022/09/22 04:54:28;;;;;;;7.82;5.57;;;8.80;99.90;;;;;;5053681;28;20392;-83
2022/09/22 04:56:56;;;;;;;9.98;6.43;;;8.70;99.90;;;;;;5091320;28;20416;-84
2022/09/22 04:59:23;;;;;;;5.70;4.63;;;8.80;99.90;;;;;;5064088;28;20412;-82
2022/09/22 05:01:51;;;;;;;8.55;5.30;;;8.80;99.90;;;;;;5036479;28;20387;-83
2022/09/22 05:04:19;;;;;;;6.00;4.47;;;8.70;99.90;;;;;;5061751;28;20407;-84
2022/09/22 05:06:47;;;;;;;9.77;5.67;;;8.80;99.90;;;;;;5069385;28;20407;-85
2022/09/22 05:09:14;;;;;;;7.53;5.30;;;8.80;99.90;;;;;;5052387;28;20380;-81
2022/09/22 05:11:43;;;;;;;8.27;4.90;;;8.80;99.90;;;;;;5052237;28;20388;-85
2022/09/22 05:14:11;;;;;;;8.07;5.30;;;8.80;99.90;;;;;;5052393;28;21052;-84
2022/09/22 05:16:39;;;;;;;6.55;4.72;;;8.80;99.90;;;;;;5053840;28;20396;-84
2022/09/22 05:19:08;;;;;;;6.15;4.55;;;8.80;99.90;;;;;;5052778;28;20394;-82
2022/09/22 05:21:36;;;;;;;6.65;5.20;;;8.90;99.90;;;;;;5052682;28;20400;-83
2022/09/22 05:24:03;;;;;;;7.03;4.83;;;8.90;99.90;;;;;;5032391;28;20421;-82
2022/09/22 05:26:31;;;;;;;6.00;4.40;;;9.00;99.90;;;;;;5033653;28;20409;-82
2022/09/22 05:28:59;;;;;;;4.97;4.30;;;8.90;99.90;;;;;;5033713;28;20943;-84
2022/09/22 05:31:26;;;;;;;5.63;4.32;;;9.00;99.90;;;;;;5032479;28;20389;-82
2022/09/22 05:33:54;;;;;;;5.28;4.13;;;8.90;99.90;;;;;;5032538;28;20891;-85
2022/09/22 05:36:21;;;;;;;6.75;4.15;;;8.90;99.90;;;;;;5033783;28;20417;-83
2022/09/22 05:38:50;;;;;;;5.03;3.97;;;8.90;99.90;;;;;;5033415;28;20389;-83
2022/09/22 05:41:18;;;;;;;7.40;4.65;;;8.90;99.90;;;;;;5032053;28;20385;-82
2022/09/22 05:43:45;;;;;;;6.60;4.47;;;8.90;99.90;;;;;;5032249;28;20417;-83
2022/09/22 05:46:12;;;;;;;6.70;4.30;;;9.00;99.90;;;;;;5031979;28;20401;-84
2022/09/22 05:48:41;;;;;;;5.03;3.90;;;9.00;99.90;;;;;;5033302;28;20439;-83
2022/09/22 05:51:09;;;;;;;5.03;3.85;;;9.00;99.90;;;;;;5033240;28;20400;-83
2022/09/22 05:53:36;;;;;;;5.65;3.97;;;9.00;99.90;;;;;;5033130;28;20417;-84
2022/09/22 05:56:04;;;;;;;7.50;4.07;;;9.00;99.90;;;;;;5032089;28;20881;-85
2022/09/22 05:58:32;;;;;;;5.57;3.72;;;9.00;99.90;;;;;;5032083;28;20385;-85
2022/09/22 06:01:00;;;;;;;5.63;3.63;;;9.10;99.90;;;;;;5048375;28;20412;-83
2022/09/22 06:03:28;;;;;;;4.53;3.55;;;9.10;99.90;;;;;;5031916;28;20400;-83
2022/09/22 06:05:56;;;;;;;5.70;4.00;;;9.10;99.90;;;;;;5032910;28;20389;-83
2022/09/22 06:08:23;;;;;;;5.53;4.28;;;9.10;99.90;;;;;;5031597;28;20455;-84
2022/09/22 06:10:51;;;;;;;4.90;3.90;;;9.10;99.90;;;;;;5031816;28;20647;-85
2022/09/22 06:13:19;;;;;;;4.63;3.67;;;9.10;99.90;;;;;;5032615;28;20791;-83
2022/09/22 06:15:47;;;;;;;5.10;3.47;;;9.10;99.90;;;;;;5032738;28;20443;-85
2022/09/22 06:18:16;;;;;;;4.63;3.53;;;9.10;99.90;;;;;;5032888;28;20385;-83
2022/09/22 06:20:51;;;;;;;5.75;3.33;;;9.10;99.90;;;;;;5031667;28;20439;-83
2022/09/22 06:23:19;;;;;;;5.97;3.30;;;9.20;99.90;;;;;;5037749;28;20395;-84
2022/09/22 06:25:46;;;;;;;5.45;3.53;;;9.20;99.90;;;;;;5052651;28;20478;-84
2022/09/22 06:28:14;;;;;;;4.57;3.47;;;9.30;99.90;;;;;;5034399;28;20785;-82
2022/09/22 06:30:42;;;;;;;4.05;3.35;;;9.40;99.90;;;;;;5052158;28;20816;-82
2022/09/22 06:33:10;;;;;;;3.60;2.80;;;9.40;99.90;;;;;;5052315;28;20407;-85
2022/09/22 06:35:41;;;;;;;4.40;3.30;;;9.50;99.90;;;;;;5034842;28;20392;-83
2022/09/22 06:38:13;;;;;;;4.25;3.03;;;9.50;99.90;;;;;;5052278;28;20419;-82
2022/09/22 06:40:42;;;;;;;4.15;3.38;;;9.60;99.90;;;;;;5067686;28;20490;-84
2022/09/22 06:43:19;;;;;;;5.33;3.43;;;9.60;99.90;;;;;;5052353;28;20734;-83
2022/09/22 06:45:47;;;;;;;3.85;3.40;;;9.60;99.90;;;;;;5050977;28;20395;-84
2022/09/22 06:48:15;;;;;;;4.43;3.05;;;9.60;99.90;;;;;;5052015;28;20823;-85
2022/09/22 06:50:51;;;;;;;4.60;3.33;;;9.60;99.90;;;;;;5034652;28;20471;-85
2022/09/22 06:53:19;;;;;;;4.10;3.08;;;9.60;99.90;;;;;;5051764;28;20858;-84
2022/09/22 06:55:51;;;;;;;3.90;2.93;;;9.60;99.90;;;;;;5034074;28;20799;-84
2022/09/22 06:58:21;;;;;;;3.63;2.87;;;9.70;99.90;;;;;;5051064;28;20396;-84
2022/09/22 07:00:49;;;;;;;4.07;3.00;;;9.70;99.90;;;;;;5052014;28;20384;-83
2022/09/22 07:03:25;;;;;;;4.38;2.95;;;9.70;99.90;;;;;;5050891;28;20384;-84
2022/09/22 07:05:59;;;;;;;3.58;2.80;;;9.70;99.90;;;;;;5067372;28;20453;-82
2022/09/22 07:08:30;;;;;;;4.00;2.90;;;9.80;99.90;;;;;;5051776;28;20435;-84
2022/09/22 07:11:03;;;;;;;4.43;3.00;;;9.80;99.90;;;;;;5051838;28;20432;-84
2022/09/22 07:13:31;;;;;;;4.45;3.05;;;9.80;99.90;;;;;;5051725;28;20411;-83
2022/09/22 07:16:25;;;;;;;4.25;2.80;;;9.80;99.90;;;;;;5051634;28;20402;-83
2022/09/22 07:18:55;;;;;;;3.95;3.20;;;9.80;99.90;;;;;;5066180;28;20412;-83
2022/09/22 07:21:31;;;;;;;4.13;2.97;;;9.80;99.90;;;;;;5051474;28;20945;-83
2022/09/22 07:23:59;;;;;;;4.43;3.15;;;9.80;99.90;;;;;;5051676;28;20407;-85
2022/09/22 07:26:31;;;;;;;3.80;2.55;;;9.80;99.90;;;;;;5051555;28;20395;-85
2022/09/22 07:29:02;;;;;;;3.93;2.87;;;9.80;99.90;;;;;;5051596;28;20400;-85
2022/09/22 07:31:31;;;;;;;3.95;3.17;;;9.80;99.90;;;;;;5067129;28;20391;-84
2022/09/22 07:33:59;;;;;;;4.03;2.90;;;9.90;99.90;;;;;;5051553;28;20384;-84
2022/09/22 07:36:30;;;;;;;5.32;3.10;;;9.90;99.90;;;;;;5051422;28;20446;-84
2022/09/22 07:39:06;;;;;;;5.93;3.60;;;9.90;99.90;;;;;;5051860;28;20388;-83
2022/09/22 07:41:43;;;;;;;5.43;3.35;;;10.00;99.90;;;;;;5033875;28;20395;-83
2022/09/22 07:46:59;;;;;;;4.50;3.30;;;10.10;99.90;;;;;;5033471;28;20897;-83
2022/09/22 07:49:27;;;;;;;5.30;3.53;;;10.00;99.90;;;;;;5051464;28;20677;-84
2022/09/22 07:51:56;;;;;;;6.13;3.20;;;10.00;99.90;;;;;;5066881;28;20391;-83
2022/09/22 07:54:25;;;;;;;5.80;3.15;;;9.90;99.90;;;;;;5051241;28;20407;-85
2022/09/22 07:57:01;;;;;;;4.90;3.20;;;9.90;99.90;;;;;;5066858;28;20446;-85
2022/09/22 07:59:28;;;;;;;4.13;3.20;;;10.00;99.90;;;;;;5051445;28;20901;-85
2022/09/22 08:01:57;;;;;;;5.72;3.60;;;10.00;99.90;;;;;;5033647;28;20402;-83
2022/09/22 08:04:25;;;;;;;4.60;3.50;;;10.00;99.90;;;;;;5049982;28;20558;-84
2022/09/22 08:06:56;;;;;;;3.85;3.10;;;10.10;99.90;;;;;;5053503;28;20388;-84
2022/09/22 08:09:24;;;;;;;4.15;3.15;;;10.10;99.90;;;;;;5055226;28;20937;-84
2022/09/22 08:11:52;;;;;;;5.00;3.25;;;10.10;99.90;;;;;;5037626;28;20384;-84
2022/09/22 08:14:21;;;;;;;4.27;3.03;;;10.20;99.90;;;;;;5070435;28;20478;-84
2022/09/22 08:16:52;;;;;;;4.95;2.90;;;10.30;99.90;;;;;;5037541;28;20437;-84
2022/09/22 08:19:22;;;;;;;4.80;3.17;;;10.30;99.90;;;;;;5037428;28;20398;-82
2022/09/22 08:21:52;;;;;;;4.65;2.88;;;10.40;99.90;;;;;;5070580;28;20418;-83
2022/09/22 08:24:21;;;;;;;5.00;3.13;;;10.50;99.90;;;;;;5033706;28;20923;-83
2022/09/22 08:26:52;;;;;;;4.47;2.97;;;10.50;99.90;;;;;;5034853;28;20429;-83
2022/09/22 08:29:20;;;;;;;4.80;2.83;;;10.60;99.90;;;;;;5066876;28;20409;-83
2022/09/22 08:31:50;;;;;;;3.60;2.72;;;10.50;99.90;;;;;;5033515;28;20431;-83
2022/09/22 08:34:17;;;;;;;5.43;3.20;;;10.50;99.90;;;;;;5034714;28;20871;-83
2022/09/22 08:36:47;;;;;;;4.10;3.03;;;10.40;99.90;;;;;;5034747;28;20394;-84
2022/09/22 08:39:16;;;;;;;3.90;3.10;;;10.40;99.90;;;;;;5033776;28;20421;-83
2022/09/22 08:41:55;;;;;;;4.38;2.53;;;10.50;99.90;;;;;;5066851;28;20895;-84
2022/09/22 08:44:31;;;;;;;4.00;2.60;;;10.50;99.90;;;;;;5034443;28;20389;-83
2022/09/22 08:47:00;;;;;;;3.58;3.00;;;10.70;99.90;;;;;;5034557;28;20398;-84
2022/09/22 08:52:49;;;;;;;3.78;2.90;;;10.60;99.90;;;;;;5034459;28;20390;-84
2022/09/22 08:55:21;;;;;;;4.68;3.55;;;10.50;99.90;;;;;;5033455;28;20439;-84
2022/09/22 08:58:08;;;;;;;4.38;3.28;;;10.50;99.90;;;;;;5034311;28;20795;-82
2022/09/22 09:00:41;;;;;;;4.72;2.83;;;10.50;99.90;;;;;;5066357;28;20840;-83
2022/09/22 09:03:18;;;;;;;4.07;2.90;;;10.50;99.90;;;;;;5034088;28;20880;-83
2022/09/22 09:06:12;;;;;;;4.23;2.70;;;10.60;99.90;;;;;;5032984;28;20725;-82
2022/09/22 09:09:03;;;;;;;4.25;3.20;;;10.50;99.90;;;;;;5033949;28;20500;-85
2022/09/22 09:11:37;;;;;;;4.43;3.10;;;10.60;99.90;;;;;;5016814;28;20390;-83
2022/09/22 09:14:30;;;;;;;4.60;3.42;;;10.50;99.90;;;;;;5032972;28;20864;-84
2022/09/22 09:17:20;;;;;;;5.03;3.10;;;10.60;99.90;;;;;;5032499;28;20443;-84
2022/09/22 09:20:00;;;;;;;4.25;3.17;;;10.50;99.90;;;;;;5036586;28;20401;-84
2022/09/22 09:22:39;;;;;;;4.93;2.97;;;10.60;99.90;;;;;;5034005;28;20477;-81
2022/09/22 09:25:15;;;;;;;3.92;2.80;;;10.50;99.90;;;;;;5033992;28;20491;-84
2022/09/22 09:27:57;;;;;;;4.43;3.20;;;10.60;99.90;;;;;;5032531;28;20508;-85
2022/09/22 09:30:25;;;;;;;4.13;3.10;;;10.50;99.90;;;;;;5033787;28;20412;-83
2022/09/22 09:33:04;;;;;;;3.97;3.20;;;10.50;99.90;;;;;;5033629;28;20903;-81
2022/09/22 09:35:51;;;;;;;4.45;3.00;;;10.50;99.90;;;;;;5033670;28;20876;-84
2022/09/22 09:38:34;;;;;;;4.03;3.30;;;10.60;99.90;;;;;;5033477;28;20448;-85
2022/09/22 09:41:13;;;;;;;3.17;2.63;;;10.70;99.90;;;;;;5065553;28;20390;-83
2022/09/22 09:43:43;;;;;;;3.85;3.10;;;10.80;99.90;;;;;;5033541;28;20451;-85
2022/09/22 09:46:33;;;;;;;3.38;2.90;;;10.80;99.90;;;;;;5032299;28;20872;-85
2022/09/22 09:49:13;;;;;;;4.07;2.73;;;10.80;99.90;;;;;;5032049;28;20405;-84
2022/09/22 09:51:47;;;;;;;4.47;2.83;;;10.90;99.90;;;;;;5033275;28;20390;-85
2022/09/22 09:54:17;;;;;;;3.22;2.92;;;11.00;99.90;;;;;;5033330;28;20441;-85
2022/09/22 09:57:03;;;;;;;3.65;2.80;;;11.00;99.90;;;;;;5032041;28;20748;-84
2022/09/22 10:02:28;;;;;;;3.38;2.72;;;10.90;99.90;;;;;;5033270;28;20423;-84
2022/09/22 10:05:21;;;;;;;3.30;2.97;;;10.90;99.90;;;;;;5032962;28;20393;-84
2022/09/22 10:07:58;;;;;;;4.45;2.85;;;10.90;99.90;;;;;;5032814;28;20401;-85
2022/09/22 10:10:32;;;;;;;3.40;2.80;;;10.90;99.90;;;;;;5032871;28;20389;-83
2022/09/22 10:13:02;;;;;;;3.92;3.10;;;10.90;99.90;;;;;;5032904;28;20470;-84
2022/09/22 10:15:35;;;;;;;4.27;2.97;;;10.80;99.90;;;;;;5033244;28;20876;-85
2022/09/22 10:18:22;;;;;;;4.63;2.75;;;10.80;99.90;;;;;;5032835;28;20399;-83
2022/09/22 10:21:14;;;;;;;4.43;2.90;;;10.80;99.90;;;;;;5032535;28;20397;-84
2022/09/22 10:23:49;;;;;;;3.43;2.90;;;10.80;99.90;;;;;;5040759;28;20395;-84
2022/09/22 10:26:31;;;;;;;4.05;2.90;;;10.80;99.90;;;;;;5052501;28;20387;-82
2022/09/22 10:29:07;;;;;;;3.15;2.78;;;10.80;99.90;;;;;;5051813;28;20411;-84
2022/09/22 10:31:38;;;;;;;4.03;2.95;;;10.80;99.90;;;;;;5052383;28;20395;-84
2022/09/22 10:34:26;;;;;;;3.47;2.40;;;10.80;99.90;;;;;;5052376;28;20494;-83
2022/09/22 10:36:56;;;;;;;4.17;2.83;;;10.90;99.90;;;;;;5052663;28;20388;-84
2022/09/22 10:39:40;;;;;;;3.50;2.70;;;10.80;99.90;;;;;;5052298;28;20562;-82
2022/09/22 10:42:19;;;;;;;3.53;2.73;;;10.90;99.90;;;;;;5052245;28;20479;-83
2022/09/22 10:44:47;;;;;;;5.88;3.00;;;10.90;99.90;;;;;;5052038;28;20754;-84
2022/09/22 10:47:40;;;;;;;3.63;2.60;;;10.90;99.90;;;;;;5052271;28;20798;-84
2022/09/22 10:50:43;;;;;;;4.82;2.90;;;11.00;99.90;;;;;;5034245;28;20806;-85
2022/09/22 10:53:32;;;;;;;3.65;2.90;;;11.00;99.90;;;;;;5052037;28;20388;-84
2022/09/22 10:56:32;;;;;;;3.28;2.65;;;11.00;99.90;;;;;;5051874;28;20414;-82
2022/09/22 10:59:03;;;;;;;3.93;2.80;;;11.10;99.90;;;;;;5052229;28;20797;-84
2022/09/22 11:01:39;;;;;;;3.47;2.55;;;11.00;99.90;;;;;;5052130;28;20388;-82
2022/09/22 11:04:13;;;;;;;2.80;2.45;;;11.10;99.90;;;;;;5051844;28;20570;-83
2022/09/22 11:13:28;;;;;;;3.85;2.30;;;11.10;99.90;;;;;;5051633;28;20571;-84
2022/09/22 11:16:05;;;;;;;2.67;2.28;;;11.10;99.90;;;;;;5051822;28;20437;-85
2022/09/22 11:18:32;;;;;;;3.47;2.28;;;11.20;99.90;;;;;;5051717;28;20391;-84
2022/09/22 11:21:10;;;;;;;2.65;2.10;;;11.20;99.90;;;;;;5051661;28;20384;-83
2022/09/22 11:24:07;;;;;;;2.80;2.30;;;11.20;99.90;;;;;;5051565;28;20480;-84
2022/09/22 11:26:56;;;;;;;3.13;2.40;;;11.20;99.90;;;;;;5049098;28;20870;-85
2022/09/22 11:29:44;;;;;;;3.63;2.40;;;11.20;99.90;;;;;;5051431;28;20982;-83
2022/09/22 11:32:51;;;;;;;3.70;2.70;;;11.20;99.90;;;;;;5051616;28;20391;-85
2022/09/22 11:35:39;;;;;;;3.55;2.38;;;11.20;99.90;;;;;;5051345;28;20380;-85
2022/09/22 11:38:21;;;;;;;3.40;2.40;;;11.30;99.90;;;;;;5051435;28;20415;-85
2022/09/22 11:40:48;;;;;;;4.00;2.47;;;11.50;99.90;;;;;;5053380;28;20412;-84
2022/09/22 11:43:19;;;;;;;2.80;2.40;;;11.90;99.90;;;;;;5055311;28;20387;-84
2022/09/22 11:45:56;;;;;;;4.20;2.33;;;12.20;99.90;;;;;;5055327;28;20383;-83
2022/09/22 11:48:51;;;;;;;2.67;2.20;;;12.60;99.90;;;;;;5055242;28;20403;-84
2022/09/22 11:51:43;;;;;;;2.88;2.10;;;12.80;99.90;;;;;;5055427;28;20916;-83
2022/09/22 11:54:35;;;;;;;2.10;1.90;;;12.90;99.90;;;;;;5055277;28;20402;-84
2022/09/22 11:57:11;;;;;;;2.58;2.05;;;13.00;99.90;;;;;;5055542;28;20754;-85
2022/09/22 11:59:44;;;;;;;3.33;2.05;;;13.30;99.90;;;;;;5055008;28;20746;-82
2022/09/22 12:02:16;;;;;;;2.10;1.90;;;13.40;99.90;;;;;;5051580;28;20873;-84
2022/09/22 12:04:54;;;;;;;2.33;2.00;;;13.10;99.90;;;;;;5070884;28;20429;-81
2022/09/22 12:07:32;;;;;;;3.58;2.20;;;12.90;99.90;;;;;;5070652;28;20396;-84
2022/09/22 12:10:05;;;;;;;3.20;2.20;;;12.70;99.90;;;;;;5055020;28;20407;-84
2022/09/22 12:12:33;;;;;;;2.00;1.60;;;12.60;99.90;;;;;;5053826;28;20454;-85
2022/09/22 12:15:37;;;;;;;1.38;1.20;;;12.50;99.90;;;;;;5055059;28;20445;-84
2022/09/22 12:18:17;;;;;;;1.83;1.08;;;12.30;99.90;;;;;;5070539;28;20375;-85
2022/09/22 12:21:06;;;;;;;1.45;1.10;;;12.20;99.90;;;;;;5053741;28;20870;-85
2022/09/22 12:23:43;;;;;;;1.58;1.20;;;12.00;99.90;;;;;;5066486;28;20401;-83
2022/09/22 12:26:31;;;;;;;2.20;1.00;;;11.90;99.90;;;;;;5066443;28;20401;-84
2022/09/22 12:29:03;;;;;;;2.83;1.00;;;11.80;99.90;;;;;;5050123;28;20397;-84
2022/09/22 12:31:38;;;;;;;1.10;0.88;;;11.80;99.90;;;;;;5047049;28;20416;-83
2022/09/22 12:34:21;;;;;;;2.10;1.00;;;11.70;99.90;;;;;;5054709;28;20413;-85
2022/09/22 12:36:58;;;;;;;1.70;0.90;;;11.80;99.90;;;;;;5054564;28;20463;-83
2022/09/22 12:39:31;;;;;;;2.00;1.10;;;11.80;99.90;;;;;;5054917;28;20387;-83
2022/09/22 12:42:23;;;;;;;1.40;1.00;;;11.80;99.90;;;;;;5054627;28;20392;-85
2022/09/22 12:45:05;;;;;;;1.83;1.05;;;11.80;99.90;;;;;;5054528;28;20443;-84
2022/09/22 12:47:39;;;;;;;1.40;1.10;;;11.80;99.90;;;;;;5054528;28;20750;-84
2022/09/22 12:50:32;;;;;;;1.75;1.30;;;11.80;99.90;;;;;;5054480;28;20399;-83
2022/09/22 12:53:19;;;;;;;1.70;1.25;;;11.80;99.90;;;;;;5052529;28;20465;-84
2022/09/22 12:55:56;;;;;;;1.70;1.50;;;11.80;99.90;;;;;;5053226;28;20505;-83
2022/09/22 12:58:29;;;;;;;2.15;1.45;;;11.80;99.90;;;;;;5054258;28;20387;-83
2022/09/22 13:01:31;;;;;;;2.88;1.90;;;11.80;99.90;;;;;;5052919;28;20865;-85
2022/09/22 13:04:11;;;;;;;2.90;1.60;;;11.80;99.90;;;;;;5053757;28;20458;-83
2022/09/22 13:06:38;;;;;;;2.55;1.70;;;11.90;99.90;;;;;;5052957;28;20464;-84
2022/09/22 13:09:08;;;;;;;3.75;1.73;;;11.90;99.90;;;;;;5052694;28;20475;-83
2022/09/22 13:12:10;;;;;;;2.60;1.90;;;12.00;99.90;;;;;;5052495;28;20869;-83
2022/09/22 13:15:07;;;;;;;2.80;1.90;;;12.40;99.90;;;;;;5053830;28;20380;-84
2022/09/22 13:17:39;;;;;;;1.80;1.40;;;12.90;99.90;;;;;;5052156;28;20384;-84
2022/09/22 13:20:15;;;;;;;2.57;1.73;;;13.10;99.90;;;;;;5053805;28;20931;-85
2022/09/22 13:22:43;;;;;;;3.05;1.67;;;13.20;99.90;;;;;;5053647;28;20396;-82
2022/09/22 13:25:30;;;;;;;3.72;1.77;;;13.50;99.90;;;;;;5073437;28;20394;-84
2022/09/22 13:28:11;;;;;;;2.50;1.50;;;13.50;99.90;;;;;;5073500;28;20468;-83
2022/09/22 13:30:40;;;;;;;2.60;1.80;;;13.70;99.90;;;;;;5073278;28;20404;-84
2022/09/22 13:33:21;;;;;;;2.08;1.52;;;13.60;99.90;;;;;;5088946;28;20742;-85
2022/09/22 13:36:01;;;;;;;1.92;1.70;;;13.60;99.90;;;;;;5089259;28;20444;-83
2022/09/22 13:38:30;;;;;;;3.00;1.90;;;13.50;99.90;;;;;;5073378;28;20382;-84
2022/09/22 13:40:57;;;;;;;1.92;1.50;;;13.40;99.90;;;;;;5073265;28;20462;-82
2022/09/22 13:43:30;;;;;;;3.13;1.70;;;13.50;99.90;;;;;;5073255;28;20956;-84
2022/09/22 13:46:00;;;;;;;1.40;1.30;;;13.40;99.90;;;;;;5055295;28;20868;-85